sensor_id;sensor_type;location;lat;lon;timestamp;temperature;humidity
11840;DHT22;5979;50.800;4.904;2023-04-24T00:01:48;10.00;99.90
11840;DHT22;5979;50.800;4.904;2023-04-24T00:04:14;10.10;99.90
11840;DHT22;5979;50.800;4.904;2023-04-24T00:06:42;10.10;99.90
11840;DHT22;5979;50.800;4.904;2023-04-24T00:09:08;10.10;99.90
11840;DHT22;5979;50.800;4.904;2023-04-24T00:11:35;10.10;99.90
11840;DHT22;5979;50.800;4.904;2023-04-24T00:14:04;10.10;99.90
11840;DHT22;5979;50.800;4.904;2023-04-24T00:16:30;10.10;99.90
11840;DHT22;5979;50.800;4.904;2023-04-24T00:18:56;10.10;99.90
11840;DHT22;5979;50.800;4.904;2023-04-24T00:21:21;10.10;99.90
11840;DHT22;5979;50.800;4.904;2023-04-24T00:23:50;10.10;99.90
11840;DHT22;5979;50.800;4.904;2023-04-24T00:26:16;10.10;99.90
11840;DHT22;5979;50.800;4.904;2023-04-24T00:28:42;10.10;99.90
11840;DHT22;5979;50.800;4.904;2023-04-24T00:31:08;10.10;99.90
11840;DHT22;5979;50.800;4.904;2023-04-24T00:33:33;10.10;99.90
11840;DHT22;5979;50.800;4.904;2023-04-24T00:35:59;10.10;99.90
11840;DHT22;5979;50.800;4.904;2023-04-24T00:38:28;10.10;99.90
11840;DHT22;5979;50.800;4.904;2023-04-24T00:40:54;10.10;99.90
11840;DHT22;5979;50.800;4.904;2023-04-24T00:43:20;10.20;99.90
11840;DHT22;5979;50.800;4.904;2023-04-24T00:45:49;10.20;99.90
11840;DHT22;5979;50.800;4.904;2023-04-24T00:48:15;10.20;99.90
11840;DHT22;5979;50.800;4.904;2023-04-24T00:50:42;10.20;99.90
11840;DHT22;5979;50.800;4.904;2023-04-24T00:53:07;10.20;99.90
11840;DHT22;5979;50.800;4.904;2023-04-24T00:55:33;10.20;99.90
11840;DHT22;5979;50.800;4.904;2023-04-24T00:57:59;10.20;99.90
11840;DHT22;5979;50.800;4.904;2023-04-24T01:00:25;10.20;99.90
11840;DHT22;5979;50.800;4.904;2023-04-24T01:02:51;10.20;99.90
11840;DHT22;5979;50.800;4.904;2023-04-24T01:05:22;10.20;99.90
11840;DHT22;5979;50.800;4.904;2023-04-24T01:07:47;10.20;99.90
11840;DHT22;5979;50.800;4.904;2023-04-24T01:10:14;10.20;99.90
11840;DHT22;5979;50.800;4.904;2023-04-24T01:12:40;10.10;99.90
11840;DHT22;5979;50.800;4.904;2023-04-24T01:15:07;10.20;99.90
11840;DHT22;5979;50.800;4.904;2023-04-24T01:17:33;10.20;99.90
11840;DHT22;5979;50.800;4.904;2023-04-24T01:20:00;10.10;99.90
11840;DHT22;5979;50.800;4.904;2023-04-24T01:22:26;10.10;99.90
11840;DHT22;5979;50.800;4.904;2023-04-24T01:24:53;10.10;99.90
11840;DHT22;5979;50.800;4.904;2023-04-24T01:27:19;10.10;99.90
11840;DHT22;5979;50.800;4.904;2023-04-24T01:29:45;10.10;99.90
11840;DHT22;5979;50.800;4.904;2023-04-24T01:32:13;10.10;99.90
11840;DHT22;5979;50.800;4.904;2023-04-24T01:34:39;10.10;99.90
11840;DHT22;5979;50.800;4.904;2023-04-24T01:37:05;10.10;99.90
11840;DHT22;5979;50.800;4.904;2023-04-24T01:39:31;10.00;99.90
11840;DHT22;5979;50.800;4.904;2023-04-24T01:41:59;10.00;99.90
11840;DHT22;5979;50.800;4.904;2023-04-24T01:44:25;10.00;99.90
11840;DHT22;5979;50.800;4.904;2023-04-24T01:46:51;10.00;99.90
11840;DHT22;5979;50.800;4.904;2023-04-24T01:49:19;10.00;99.90
11840;DHT22;5979;50.800;4.904;2023-04-24T01:51:45;9.90;99.90
11840;DHT22;5979;50.800;4.904;2023-04-24T01:54:11;9.90;99.90
11840;DHT22;5979;50.800;4.904;2023-04-24T01:56:41;9.90;99.90
11840;DHT22;5979;50.800;4.904;2023-04-24T01:59:10;9.90;99.90
11840;DHT22;5979;50.800;4.904;2023-04-24T02:01:37;9.90;99.90
11840;DHT22;5979;50.800;4.904;2023-04-24T02:04:07;9.90;99.90
11840;DHT22;5979;50.800;4.904;2023-04-24T02:06:32;9.80;99.90
11840;DHT22;5979;50.800;4.904;2023-04-24T02:08:59;9.70;99.90
11840;DHT22;5979;50.800;4.904;2023-04-24T02:11:28;9.70;99.90
11840;DHT22;5979;50.800;4.904;2023-04-24T02:13:57;9.60;99.90
11840;DHT22;5979;50.800;4.904;2023-04-24T02:16:23;9.60;99.90
11840;DHT22;5979;50.800;4.904;2023-04-24T02:18:48;9.60;99.90
11840;DHT22;5979;50.800;4.904;2023-04-24T02:21:17;9.50;99.90
11840;DHT22;5979;50.800;4.904;2023-04-24T02:23:43;9.50;99.90
11840;DHT22;5979;50.800;4.904;2023-04-24T02:26:08;9.40;99.90
11840;DHT22;5979;50.800;4.904;2023-04-24T02:28:34;9.40;99.90
11840;DHT22;5979;50.800;4.904;2023-04-24T02:31:00;9.40;99.90
11840;DHT22;5979;50.800;4.904;2023-04-24T02:33:25;9.40;99.90
11840;DHT22;5979;50.800;4.904;2023-04-24T02:35:51;9.40;99.90
11840;DHT22;5979;50.800;4.904;2023-04-24T02:38:19;9.30;99.90
11840;DHT22;5979;50.800;4.904;2023-04-24T02:40:45;9.30;99.90
11840;DHT22;5979;50.800;4.904;2023-04-24T02:43:11;9.30;99.90
11840;DHT22;5979;50.800;4.904;2023-04-24T02:45:36;9.30;99.90
11840;DHT22;5979;50.800;4.904;2023-04-24T02:48:03;9.30;99.90
11840;DHT22;5979;50.800;4.904;2023-04-24T02:50:29;9.30;99.90
11840;DHT22;5979;50.800;4.904;2023-04-24T02:52:55;9.20;99.90
11840;DHT22;5979;50.800;4.904;2023-04-24T02:55:20;9.30;99.90
11840;DHT22;5979;50.800;4.904;2023-04-24T02:57:46;9.20;99.90
11840;DHT22;5979;50.800;4.904;2023-04-24T03:00:12;9.30;99.90
11840;DHT22;5979;50.800;4.904;2023-04-24T03:02:38;9.30;99.90
11840;DHT22;5979;50.800;4.904;2023-04-24T03:05:05;9.30;99.90
11840;DHT22;5979;50.800;4.904;2023-04-24T03:07:31;9.30;99.90
11840;DHT22;5979;50.800;4.904;2023-04-24T03:09:57;9.30;99.90
11840;DHT22;5979;50.800;4.904;2023-04-24T03:12:23;9.30;99.90
11840;DHT22;5979;50.800;4.904;2023-04-24T03:14:49;9.20;99.90
11840;DHT22;5979;50.800;4.904;2023-04-24T03:17:15;9.30;99.90
11840;DHT22;5979;50.800;4.904;2023-04-24T03:19:41;9.30;99.90
11840;DHT22;5979;50.800;4.904;2023-04-24T03:22:06;9.30;99.90
11840;DHT22;5979;50.800;4.904;2023-04-24T03:24:34;9.30;99.90
11840;DHT22;5979;50.800;4.904;2023-04-24T03:27:00;9.30;99.90
11840;DHT22;5979;50.800;4.904;2023-04-24T03:29:25;9.20;99.90
11840;DHT22;5979;50.800;4.904;2023-04-24T03:31:51;9.20;99.90
11840;DHT22;5979;50.800;4.904;2023-04-24T03:34:17;9.30;99.90
11840;DHT22;5979;50.800;4.904;2023-04-24T03:36:42;9.20;99.90
11840;DHT22;5979;50.800;4.904;2023-04-24T03:39:11;9.20;99.90
11840;DHT22;5979;50.800;4.904;2023-04-24T03:41:39;9.20;99.90
11840;DHT22;5979;50.800;4.904;2023-04-24T03:44:05;9.20;99.90
11840;DHT22;5979;50.800;4.904;2023-04-24T03:46:31;9.10;99.90
11840;DHT22;5979;50.800;4.904;2023-04-24T03:48:56;9.20;99.90
11840;DHT22;5979;50.800;4.904;2023-04-24T03:51:22;9.10;99.90
11840;DHT22;5979;50.800;4.904;2023-04-24T03:53:49;9.10;99.90
11840;DHT22;5979;50.800;4.904;2023-04-24T03:56:15;9.10;99.90
11840;DHT22;5979;50.800;4.904;2023-04-24T03:58:40;9.10;99.90
11840;DHT22;5979;50.800;4.904;2023-04-24T04:01:06;9.10;99.90
11840;DHT22;5979;50.800;4.904;2023-04-24T04:03:39;9.10;99.90
11840;DHT22;5979;50.800;4.904;2023-04-24T04:06:05;9.10;99.90
11840;DHT22;5979;50.800;4.904;2023-04-24T04:08:31;9.10;99.90
11840;DHT22;5979;50.800;4.904;2023-04-24T04:11:00;9.20;99.90
11840;DHT22;5979;50.800;4.904;2023-04-24T04:13:25;9.10;99.90
11840;DHT22;5979;50.800;4.904;2023-04-24T04:15:51;9.10;99.90
11840;DHT22;5979;50.800;4.904;2023-04-24T04:18:17;9.10;99.90
11840;DHT22;5979;50.800;4.904;2023-04-24T04:20:42;9.10;99.90
11840;DHT22;5979;50.800;4.904;2023-04-24T04:23:08;9.10;99.90
11840;DHT22;5979;50.800;4.904;2023-04-24T04:25:34;9.10;99.90
11840;DHT22;5979;50.800;4.904;2023-04-24T04:27:59;9.10;99.90
11840;DHT22;5979;50.800;4.904;2023-04-24T04:30:25;9.10;99.90
11840;DHT22;5979;50.800;4.904;2023-04-24T04:32:51;9.10;99.90
11840;DHT22;5979;50.800;4.904;2023-04-24T04:35:17;9.10;99.90
11840;DHT22;5979;50.800;4.904;2023-04-24T04:37:43;9.10;99.90
11840;DHT22;5979;50.800;4.904;2023-04-24T04:40:08;9.10;99.90
11840;DHT22;5979;50.800;4.904;2023-04-24T04:42:37;9.10;99.90
11840;DHT22;5979;50.800;4.904;2023-04-24T04:45:08;9.10;99.90
11840;DHT22;5979;50.800;4.904;2023-04-24T04:47:34;9.10;99.90
11840;DHT22;5979;50.800;4.904;2023-04-24T04:50:00;9.10;99.90
11840;DHT22;5979;50.800;4.904;2023-04-24T04:52:29;9.10;99.90
11840;DHT22;5979;50.800;4.904;2023-04-24T04:54:55;9.10;99.90
11840;DHT22;5979;50.800;4.904;2023-04-24T04:57:21;9.10;99.90
11840;DHT22;5979;50.800;4.904;2023-04-24T04:59:47;9.10;99.90
11840;DHT22;5979;50.800;4.904;2023-04-24T05:02:12;9.20;99.90
11840;DHT22;5979;50.800;4.904;2023-04-24T05:04:38;9.20;99.90
11840;DHT22;5979;50.800;4.904;2023-04-24T05:07:04;9.20;99.90
11840;DHT22;5979;50.800;4.904;2023-04-24T05:09:29;9.20;99.90
11840;DHT22;5979;50.800;4.904;2023-04-24T05:11:56;9.20;99.90
11840;DHT22;5979;50.800;4.904;2023-04-24T05:14:21;9.20;99.90
11840;DHT22;5979;50.800;4.904;2023-04-24T05:16:47;9.20;99.90
11840;DHT22;5979;50.800;4.904;2023-04-24T05:19:13;9.20;99.90
11840;DHT22;5979;50.800;4.904;2023-04-24T05:21:40;9.30;99.90
11840;DHT22;5979;50.800;4.904;2023-04-24T05:24:06;9.30;99.90
11840;DHT22;5979;50.800;4.904;2023-04-24T05:26:31;9.30;99.90
11840;DHT22;5979;50.800;4.904;2023-04-24T05:29:01;9.20;99.90
11840;DHT22;5979;50.800;4.904;2023-04-24T05:31:28;9.20;99.90
11840;DHT22;5979;50.800;4.904;2023-04-24T05:33:54;9.20;99.90
11840;DHT22;5979;50.800;4.904;2023-04-24T05:36:19;9.20;99.90
11840;DHT22;5979;50.800;4.904;2023-04-24T05:38:45;9.20;99.90
11840;DHT22;5979;50.800;4.904;2023-04-24T05:41:10;9.20;99.90
11840;DHT22;5979;50.800;4.904;2023-04-24T05:43:36;9.20;99.90
11840;DHT22;5979;50.800;4.904;2023-04-24T05:46:02;9.20;99.90
11840;DHT22;5979;50.800;4.904;2023-04-24T05:48:30;9.20;99.90
11840;DHT22;5979;50.800;4.904;2023-04-24T05:50:56;9.20;99.90
11840;DHT22;5979;50.800;4.904;2023-04-24T05:53:22;9.20;99.90
11840;DHT22;5979;50.800;4.904;2023-04-24T05:55:48;9.20;99.90
11840;DHT22;5979;50.800;4.904;2023-04-24T05:58:14;9.20;99.90
11840;DHT22;5979;50.800;4.904;2023-04-24T06:00:43;9.20;99.90
11840;DHT22;5979;50.800;4.904;2023-04-24T06:03:09;9.20;99.90
11840;DHT22;5979;50.800;4.904;2023-04-24T06:05:35;9.20;99.90
11840;DHT22;5979;50.800;4.904;2023-04-24T06:08:01;9.20;99.90
11840;DHT22;5979;50.800;4.904;2023-04-24T06:10:27;9.20;99.90
11840;DHT22;5979;50.800;4.904;2023-04-24T06:12:52;9.20;99.90
11840;DHT22;5979;50.800;4.904;2023-04-24T06:15:21;9.20;99.90
11840;DHT22;5979;50.800;4.904;2023-04-24T06:17:47;9.30;99.90
11840;DHT22;5979;50.800;4.904;2023-04-24T06:20:13;9.20;99.90
11840;DHT22;5979;50.800;4.904;2023-04-24T06:22:39;9.20;99.90
11840;DHT22;5979;50.800;4.904;2023-04-24T06:25:05;9.20;99.90
11840;DHT22;5979;50.800;4.904;2023-04-24T06:27:32;9.20;99.90
11840;DHT22;5979;50.800;4.904;2023-04-24T06:30:02;9.20;99.90
11840;DHT22;5979;50.800;4.904;2023-04-24T06:32:27;9.20;99.90
11840;DHT22;5979;50.800;4.904;2023-04-24T06:34:53;9.20;99.90
11840;DHT22;5979;50.800;4.904;2023-04-24T06:37:21;9.20;99.90
11840;DHT22;5979;50.800;4.904;2023-04-24T06:39:47;9.20;99.90
11840;DHT22;5979;50.800;4.904;2023-04-24T06:42:13;9.20;99.90
11840;DHT22;5979;50.800;4.904;2023-04-24T06:44:38;9.20;99.90
11840;DHT22;5979;50.800;4.904;2023-04-24T06:47:08;9.10;99.90
11840;DHT22;5979;50.800;4.904;2023-04-24T06:49:37;9.20;99.90
11840;DHT22;5979;50.800;4.904;2023-04-24T06:52:03;9.10;99.90
11840;DHT22;5979;50.800;4.904;2023-04-24T06:54:30;9.10;99.90
11840;DHT22;5979;50.800;4.904;2023-04-24T06:56:56;9.20;99.90
11840;DHT22;5979;50.800;4.904;2023-04-24T06:59:31;9.10;99.90
11840;DHT22;5979;50.800;4.904;2023-04-24T07:01:57;9.10;99.90
11840;DHT22;5979;50.800;4.904;2023-04-24T07:04:23;9.20;99.90
11840;DHT22;5979;50.800;4.904;2023-04-24T07:06:53;9.10;99.90
11840;DHT22;5979;50.800;4.904;2023-04-24T07:09:24;9.10;99.90
11840;DHT22;5979;50.800;4.904;2023-04-24T07:11:51;9.20;99.90
11840;DHT22;5979;50.800;4.904;2023-04-24T07:14:17;9.20;99.90
11840;DHT22;5979;50.800;4.904;2023-04-24T07:16:43;9.20;99.90
11840;DHT22;5979;50.800;4.904;2023-04-24T07:19:09;9.20;99.90
11840;DHT22;5979;50.800;4.904;2023-04-24T07:21:35;9.20;99.90
11840;DHT22;5979;50.800;4.904;2023-04-24T07:24:04;9.20;99.90
11840;DHT22;5979;50.800;4.904;2023-04-24T07:26:30;9.20;99.90
11840;DHT22;5979;50.800;4.904;2023-04-24T07:28:56;9.30;99.90
11840;DHT22;5979;50.800;4.904;2023-04-24T07:31:22;9.30;99.90
11840;DHT22;5979;50.800;4.904;2023-04-24T07:33:48;9.40;99.90
11840;DHT22;5979;50.800;4.904;2023-04-24T07:36:14;9.40;99.90
11840;DHT22;5979;50.800;4.904;2023-04-24T07:38:45;9.50;99.90
11840;DHT22;5979;50.800;4.904;2023-04-24T07:41:12;9.60;99.90
11840;DHT22;5979;50.800;4.904;2023-04-24T07:43:38;9.70;99.90
11840;DHT22;5979;50.800;4.904;2023-04-24T07:46:04;9.70;99.90
11840;DHT22;5979;50.800;4.904;2023-04-24T07:48:30;9.70;99.90
11840;DHT22;5979;50.800;4.904;2023-04-24T07:50:56;9.70;99.90
11840;DHT22;5979;50.800;4.904;2023-04-24T07:53:22;9.80;99.90
11840;DHT22;5979;50.800;4.904;2023-04-24T07:55:47;9.80;99.90
11840;DHT22;5979;50.800;4.904;2023-04-24T07:58:13;9.70;99.90
11840;DHT22;5979;50.800;4.904;2023-04-24T08:00:39;9.70;99.90
11840;DHT22;5979;50.800;4.904;2023-04-24T08:03:05;9.60;99.90
11840;DHT22;5979;50.800;4.904;2023-04-24T08:05:31;9.60;99.90
11840;DHT22;5979;50.800;4.904;2023-04-24T08:07:58;9.60;99.90
11840;DHT22;5979;50.800;4.904;2023-04-24T08:10:24;9.70;99.90
11840;DHT22;5979;50.800;4.904;2023-04-24T08:12:50;9.60;99.90
11840;DHT22;5979;50.800;4.904;2023-04-24T08:15:17;9.60;99.90
11840;DHT22;5979;50.800;4.904;2023-04-24T08:17:43;9.70;99.90
11840;DHT22;5979;50.800;4.904;2023-04-24T08:20:10;9.70;99.90
11840;DHT22;5979;50.800;4.904;2023-04-24T08:22:42;9.80;99.90
11840;DHT22;5979;50.800;4.904;2023-04-24T08:25:10;9.90;99.90
11840;DHT22;5979;50.800;4.904;2023-04-24T08:27:36;9.90;99.90
11840;DHT22;5979;50.800;4.904;2023-04-24T08:30:03;10.10;99.90
11840;DHT22;5979;50.800;4.904;2023-04-24T08:32:29;10.20;99.90
11840;DHT22;5979;50.800;4.904;2023-04-24T08:34:56;10.60;99.90
11840;DHT22;5979;50.800;4.904;2023-04-24T08:37:23;11.00;99.90
11840;DHT22;5979;50.800;4.904;2023-04-24T08:39:50;11.30;99.90
11840;DHT22;5979;50.800;4.904;2023-04-24T08:42:17;11.60;99.90
11840;DHT22;5979;50.800;4.904;2023-04-24T08:44:43;11.90;99.90
11840;DHT22;5979;50.800;4.904;2023-04-24T08:47:10;12.30;99.90
11840;DHT22;5979;50.800;4.904;2023-04-24T08:49:37;12.70;99.90
11840;DHT22;5979;50.800;4.904;2023-04-24T08:52:05;13.00;99.90
11840;DHT22;5979;50.800;4.904;2023-04-24T08:54:31;12.90;99.90
11840;DHT22;5979;50.800;4.904;2023-04-24T08:57:02;12.90;99.90
11840;DHT22;5979;50.800;4.904;2023-04-24T08:59:30;12.70;99.90
11840;DHT22;5979;50.800;4.904;2023-04-24T09:01:56;12.40;99.90
11840;DHT22;5979;50.800;4.904;2023-04-24T09:04:23;12.30;99.90
11840;DHT22;5979;50.800;4.904;2023-04-24T09:06:51;12.30;99.90
11840;DHT22;5979;50.800;4.904;2023-04-24T09:09:17;12.30;99.90
11840;DHT22;5979;50.800;4.904;2023-04-24T09:11:44;12.40;99.90
11840;DHT22;5979;50.800;4.904;2023-04-24T09:14:10;12.50;99.90
11840;DHT22;5979;50.800;4.904;2023-04-24T09:16:36;12.80;99.90
11840;DHT22;5979;50.800;4.904;2023-04-24T09:19:02;13.00;99.90
11840;DHT22;5979;50.800;4.904;2023-04-24T09:21:35;13.00;99.90
11840;DHT22;5979;50.800;4.904;2023-04-24T09:24:02;13.00;99.90
11840;DHT22;5979;50.800;4.904;2023-04-24T09:26:34;12.80;99.90
11840;DHT22;5979;50.800;4.904;2023-04-24T09:29:00;12.60;99.90
11840;DHT22;5979;50.800;4.904;2023-04-24T09:31:28;12.50;99.90
11840;DHT22;5979;50.800;4.904;2023-04-24T09:36:48;12.50;99.90
11840;DHT22;5979;50.800;4.904;2023-04-24T09:39:15;12.50;99.90
11840;DHT22;5979;50.800;4.904;2023-04-24T09:44:18;12.90;99.90
11840;DHT22;5979;50.800;4.904;2023-04-24T09:46:53;13.20;99.90
11840;DHT22;5979;50.800;4.904;2023-04-24T09:49:38;13.60;99.90
11840;DHT22;5979;50.800;4.904;2023-04-24T09:52:09;13.90;99.90
11840;DHT22;5979;50.800;4.904;2023-04-24T09:54:35;14.00;99.90
11840;DHT22;5979;50.800;4.904;2023-04-24T09:57:04;14.10;99.90
11840;DHT22;5979;50.800;4.904;2023-04-24T09:59:32;14.10;99.90
11840;DHT22;5979;50.800;4.904;2023-04-24T10:01:59;14.10;99.90
11840;DHT22;5979;50.800;4.904;2023-04-24T10:04:27;13.90;99.90
11840;DHT22;5979;50.800;4.904;2023-04-24T10:06:55;13.70;99.90
11840;DHT22;5979;50.800;4.904;2023-04-24T10:09:23;13.60;99.90
11840;DHT22;5979;50.800;4.904;2023-04-24T10:11:50;13.40;99.90
11840;DHT22;5979;50.800;4.904;2023-04-24T10:14:19;13.30;99.90
11840;DHT22;5979;50.800;4.904;2023-04-24T10:16:46;13.20;99.90
11840;DHT22;5979;50.800;4.904;2023-04-24T10:19:16;13.10;99.90
11840;DHT22;5979;50.800;4.904;2023-04-24T10:21:44;13.00;99.90
11840;DHT22;5979;50.800;4.904;2023-04-24T10:24:17;13.00;99.90
11840;DHT22;5979;50.800;4.904;2023-04-24T10:26:44;12.90;99.90
11840;DHT22;5979;50.800;4.904;2023-04-24T10:29:11;13.00;99.90
11840;DHT22;5979;50.800;4.904;2023-04-24T10:31:38;13.00;99.90
11840;DHT22;5979;50.800;4.904;2023-04-24T10:34:08;13.20;99.90
11840;DHT22;5979;50.800;4.904;2023-04-24T10:36:36;13.40;99.90
11840;DHT22;5979;50.800;4.904;2023-04-24T10:39:05;13.60;99.90
11840;DHT22;5979;50.800;4.904;2023-04-24T10:41:32;13.70;99.90
11840;DHT22;5979;50.800;4.904;2023-04-24T10:44:24;13.80;99.90
11840;DHT22;5979;50.800;4.904;2023-04-24T10:46:54;13.80;99.90
11840;DHT22;5979;50.800;4.904;2023-04-24T10:49:30;13.80;99.90
11840;DHT22;5979;50.800;4.904;2023-04-24T10:52:01;13.80;99.90
11840;DHT22;5979;50.800;4.904;2023-04-24T10:54:45;13.90;99.90
11840;DHT22;5979;50.800;4.904;2023-04-24T10:59:47;14.40;99.90
11840;DHT22;5979;50.800;4.904;2023-04-24T11:02:16;14.60;99.90
11840;DHT22;5979;50.800;4.904;2023-04-24T11:04:43;14.40;99.90
11840;DHT22;5979;50.800;4.904;2023-04-24T11:07:09;14.20;99.90
11840;DHT22;5979;50.800;4.904;2023-04-24T11:09:36;14.00;99.90
11840;DHT22;5979;50.800;4.904;2023-04-24T11:12:11;13.90;99.90
11840;DHT22;5979;50.800;4.904;2023-04-24T11:17:35;13.90;99.90
11840;DHT22;5979;50.800;4.904;2023-04-24T11:20:10;13.80;99.90
11840;DHT22;5979;50.800;4.904;2023-04-24T11:22:37;13.80;99.90
11840;DHT22;5979;50.800;4.904;2023-04-24T11:25:09;13.90;99.90
11840;DHT22;5979;50.800;4.904;2023-04-24T11:27:40;14.00;99.90
11840;DHT22;5979;50.800;4.904;2023-04-24T11:30:10;14.00;99.90
11840;DHT22;5979;50.800;4.904;2023-04-24T11:32:41;14.10;99.90
11840;DHT22;5979;50.800;4.904;2023-04-24T11:37:49;14.50;99.90
11840;DHT22;5979;50.800;4.904;2023-04-24T11:40:16;14.50;99.90
11840;DHT22;5979;50.800;4.904;2023-04-24T11:42:50;14.60;99.90
11840;DHT22;5979;50.800;4.904;2023-04-24T11:45:21;14.70;99.90
11840;DHT22;5979;50.800;4.904;2023-04-24T11:47:47;14.60;99.90
11840;DHT22;5979;50.800;4.904;2023-04-24T11:50:15;14.60;99.90
11840;DHT22;5979;50.800;4.904;2023-04-24T11:52:43;14.50;99.90
11840;DHT22;5979;50.800;4.904;2023-04-24T11:57:52;14.30;99.90
11840;DHT22;5979;50.800;4.904;2023-04-24T12:00:20;14.20;99.90
11840;DHT22;5979;50.800;4.904;2023-04-24T12:02:46;14.10;99.90
11840;DHT22;5979;50.800;4.904;2023-04-24T12:05:24;14.00;99.90
11840;DHT22;5979;50.800;4.904;2023-04-24T12:07:51;14.10;99.90
11840;DHT22;5979;50.800;4.904;2023-04-24T12:10:26;14.00;99.90
11840;DHT22;5979;50.800;4.904;2023-04-24T12:12:53;14.00;99.90
11840;DHT22;5979;50.800;4.904;2023-04-24T12:15:20;14.10;99.90
11840;DHT22;5979;50.800;4.904;2023-04-24T12:17:47;14.30;99.90
11840;DHT22;5979;50.800;4.904;2023-04-24T12:20:14;14.40;99.90
11840;DHT22;5979;50.800;4.904;2023-04-24T12:22:44;14.40;99.90
11840;DHT22;5979;50.800;4.904;2023-04-24T12:25:11;14.40;99.90
11840;DHT22;5979;50.800;4.904;2023-04-24T12:27:37;14.50;99.90
11840;DHT22;5979;50.800;4.904;2023-04-24T12:30:04;14.50;99.90
11840;DHT22;5979;50.800;4.904;2023-04-24T12:32:31;14.50;99.90
11840;DHT22;5979;50.800;4.904;2023-04-24T12:34:57;14.60;99.90
11840;DHT22;5979;50.800;4.904;2023-04-24T12:37:25;14.80;99.90
11840;DHT22;5979;50.800;4.904;2023-04-24T12:40:08;14.80;99.90
11840;DHT22;5979;50.800;4.904;2023-04-24T12:42:36;15.00;99.90
11840;DHT22;5979;50.800;4.904;2023-04-24T12:45:07;15.20;99.90
11840;DHT22;5979;50.800;4.904;2023-04-24T12:47:33;15.30;99.90
11840;DHT22;5979;50.800;4.904;2023-04-24T12:50:00;15.50;99.90
11840;DHT22;5979;50.800;4.904;2023-04-24T12:52:27;15.50;99.90
11840;DHT22;5979;50.800;4.904;2023-04-24T12:54:56;15.40;99.90
11840;DHT22;5979;50.800;4.904;2023-04-24T12:57:23;15.40;99.90
11840;DHT22;5979;50.800;4.904;2023-04-24T12:59:49;15.40;99.90
11840;DHT22;5979;50.800;4.904;2023-04-24T13:02:16;15.40;99.90
11840;DHT22;5979;50.800;4.904;2023-04-24T13:04:46;15.40;99.90
11840;DHT22;5979;50.800;4.904;2023-04-24T13:07:13;15.30;99.90
11840;DHT22;5979;50.800;4.904;2023-04-24T13:09:40;15.10;99.90
11840;DHT22;5979;50.800;4.904;2023-04-24T13:12:10;15.00;99.90
11840;DHT22;5979;50.800;4.904;2023-04-24T13:14:36;15.00;99.90
11840;DHT22;5979;50.800;4.904;2023-04-24T13:17:02;15.10;99.90
11840;DHT22;5979;50.800;4.904;2023-04-24T13:19:28;15.20;99.90
11840;DHT22;5979;50.800;4.904;2023-04-24T13:21:56;15.30;99.90
11840;DHT22;5979;50.800;4.904;2023-04-24T13:24:22;15.50;99.90
11840;DHT22;5979;50.800;4.904;2023-04-24T13:26:50;15.40;99.90
11840;DHT22;5979;50.800;4.904;2023-04-24T13:29:17;15.30;99.90
11840;DHT22;5979;50.800;4.904;2023-04-24T13:31:42;15.20;99.90
11840;DHT22;5979;50.800;4.904;2023-04-24T13:34:08;15.00;99.90
11840;DHT22;5979;50.800;4.904;2023-04-24T13:36:34;15.00;99.90
11840;DHT22;5979;50.800;4.904;2023-04-24T13:39:01;15.00;99.90
11840;DHT22;5979;50.800;4.904;2023-04-24T13:41:26;14.90;99.90
11840;DHT22;5979;50.800;4.904;2023-04-24T13:43:52;14.90;99.90
11840;DHT22;5979;50.800;4.904;2023-04-24T13:46:18;14.90;99.90
11840;DHT22;5979;50.800;4.904;2023-04-24T13:48:44;14.70;99.90
11840;DHT22;5979;50.800;4.904;2023-04-24T13:51:10;14.70;99.90
11840;DHT22;5979;50.800;4.904;2023-04-24T13:53:36;14.60;99.90
11840;DHT22;5979;50.800;4.904;2023-04-24T13:56:04;14.60;99.90
11840;DHT22;5979;50.800;4.904;2023-04-24T13:58:31;14.70;99.90
11840;DHT22;5979;50.800;4.904;2023-04-24T14:00:57;14.60;99.90
11840;DHT22;5979;50.800;4.904;2023-04-24T14:03:23;14.60;99.90
11840;DHT22;5979;50.800;4.904;2023-04-24T14:05:49;14.50;99.90
11840;DHT22;5979;50.800;4.904;2023-04-24T14:08:15;14.40;99.90
11840;DHT22;5979;50.800;4.904;2023-04-24T14:10:42;14.40;99.90
11840;DHT22;5979;50.800;4.904;2023-04-24T14:13:08;14.40;99.90
11840;DHT22;5979;50.800;4.904;2023-04-24T14:15:35;14.40;99.90
11840;DHT22;5979;50.800;4.904;2023-04-24T14:18:02;14.50;99.90
11840;DHT22;5979;50.800;4.904;2023-04-24T14:20:28;14.60;99.90
11840;DHT22;5979;50.800;4.904;2023-04-24T14:22:54;14.60;99.90
11840;DHT22;5979;50.800;4.904;2023-04-24T14:25:20;14.60;99.90
11840;DHT22;5979;50.800;4.904;2023-04-24T14:27:47;14.60;99.90
11840;DHT22;5979;50.800;4.904;2023-04-24T14:30:16;14.60;99.90
11840;DHT22;5979;50.800;4.904;2023-04-24T14:32:42;14.40;99.90
11840;DHT22;5979;50.800;4.904;2023-04-24T14:35:08;14.30;99.90
11840;DHT22;5979;50.800;4.904;2023-04-24T14:37:34;14.30;99.90
11840;DHT22;5979;50.800;4.904;2023-04-24T14:40:01;14.30;99.90
11840;DHT22;5979;50.800;4.904;2023-04-24T14:42:27;14.30;99.90
11840;DHT22;5979;50.800;4.904;2023-04-24T14:44:54;14.40;99.90
11840;DHT22;5979;50.800;4.904;2023-04-24T14:47:20;14.40;99.90
11840;DHT22;5979;50.800;4.904;2023-04-24T14:49:49;14.30;99.90
11840;DHT22;5979;50.800;4.904;2023-04-24T14:52:15;14.10;99.90
11840;DHT22;5979;50.800;4.904;2023-04-24T14:54:42;13.90;99.90
11840;DHT22;5979;50.800;4.904;2023-04-24T14:57:09;13.70;99.90
11840;DHT22;5979;50.800;4.904;2023-04-24T14:59:36;13.60;99.90
11840;DHT22;5979;50.800;4.904;2023-04-24T15:02:02;13.40;99.90
11840;DHT22;5979;50.800;4.904;2023-04-24T15:04:28;13.40;99.90
11840;DHT22;5979;50.800;4.904;2023-04-24T15:06:55;13.50;99.90
11840;DHT22;5979;50.800;4.904;2023-04-24T15:09:22;13.60;99.90
11840;DHT22;5979;50.800;4.904;2023-04-24T15:11:48;13.80;99.90
11840;DHT22;5979;50.800;4.904;2023-04-24T15:14:16;13.80;99.90
11840;DHT22;5979;50.800;4.904;2023-04-24T15:16:42;13.70;99.90
11840;DHT22;5979;50.800;4.904;2023-04-24T15:19:08;13.60;99.90
11840;DHT22;5979;50.800;4.904;2023-04-24T15:21:36;13.60;99.90
11840;DHT22;5979;50.800;4.904;2023-04-24T15:24:01;13.50;99.90
11840;DHT22;5979;50.800;4.904;2023-04-24T15:26:27;13.40;99.90
11840;DHT22;5979;50.800;4.904;2023-04-24T15:28:53;13.30;99.90
11840;DHT22;5979;50.800;4.904;2023-04-24T15:31:18;13.20;99.90
11840;DHT22;5979;50.800;4.904;2023-04-24T15:33:44;13.10;99.90
11840;DHT22;5979;50.800;4.904;2023-04-24T15:36:13;13.10;99.90
11840;DHT22;5979;50.800;4.904;2023-04-24T15:38:38;13.00;99.90
11840;DHT22;5979;50.800;4.904;2023-04-24T15:41:04;13.10;99.90
11840;DHT22;5979;50.800;4.904;2023-04-24T15:43:33;13.10;99.90
11840;DHT22;5979;50.800;4.904;2023-04-24T15:46:03;13.00;99.90
11840;DHT22;5979;50.800;4.904;2023-04-24T15:48:29;13.00;99.90
11840;DHT22;5979;50.800;4.904;2023-04-24T15:50:54;13.10;99.90
11840;DHT22;5979;50.800;4.904;2023-04-24T15:53:20;13.20;99.90
11840;DHT22;5979;50.800;4.904;2023-04-24T15:55:50;13.20;99.90
11840;DHT22;5979;50.800;4.904;2023-04-24T15:58:16;13.30;99.90
11840;DHT22;5979;50.800;4.904;2023-04-24T16:00:42;13.30;99.90
11840;DHT22;5979;50.800;4.904;2023-04-24T16:03:08;13.30;99.90
11840;DHT22;5979;50.800;4.904;2023-04-24T16:05:34;13.20;99.90
11840;DHT22;5979;50.800;4.904;2023-04-24T16:08:00;13.10;99.90